createdAt,value
2023-03-23T15:59:30.678Z,3.70
2023-03-23T16:02:02.107Z,3.85
2023-03-23T16:04:30.539Z,4.25
2023-03-23T16:06:59.372Z,4.97
2023-03-23T16:09:26.928Z,4.35
2023-03-23T16:11:54.494Z,4.53
2023-03-23T16:14:22.120Z,4.10
2023-03-23T16:16:51.222Z,3.97
2023-03-23T16:19:20.734Z,4.40
2023-03-23T16:21:48.263Z,4.85
2023-03-23T16:24:16.072Z,4.53
2023-03-23T16:26:43.732Z,4.47
2023-03-23T16:29:23.806Z,5.75
2023-03-23T16:32:00.342Z,5.00
2023-03-23T16:34:30.204Z,6.75
2023-03-23T16:36:57.680Z,7.65
2023-03-23T16:39:25.353Z,9.75
2023-03-23T16:42:19.024Z,34.63
2023-03-23T16:44:47.843Z,18.63
2023-03-23T16:47:16.327Z,9.23
2023-03-23T16:49:43.855Z,9.15
2023-03-23T16:52:11.360Z,9.90
2023-03-23T16:54:38.853Z,14.88
2023-03-23T16:57:06.772Z,16.17
2023-03-23T16:59:36.488Z,20.90
2023-03-23T17:02:04.469Z,28.15
2023-03-23T17:04:32.275Z,25.73
2023-03-23T17:07:00.116Z,29.20
2023-03-23T17:09:27.815Z,34.47
2023-03-23T17:11:55.281Z,33.65
2023-03-23T17:14:22.996Z,35.25
2023-03-23T17:16:50.670Z,32.38
2023-03-23T17:19:18.432Z,29.45
2023-03-23T17:21:46.117Z,27.45
2023-03-23T17:24:13.895Z,18.55
2023-03-23T17:26:42.052Z,21.65
2023-03-23T17:29:09.655Z,22.45
2023-03-23T17:31:37.341Z,24.98
2023-03-23T17:34:05.135Z,57.88
2023-03-23T17:36:32.685Z,93.75
2023-03-23T17:39:00.721Z,62.58
2023-03-23T17:41:28.199Z,85.53
2023-03-23T17:43:55.821Z,79.88
2023-03-23T17:46:25.877Z,79.03
2023-03-23T17:48:53.722Z,54.47
2023-03-23T17:51:21.726Z,51.28
2023-03-23T17:53:49.613Z,41.70
2023-03-23T17:56:17.058Z,44.92
2023-03-23T17:58:44.656Z,41.92
2023-03-23T18:01:12.365Z,48.20
2023-03-23T18:03:40.097Z,48.08
2023-03-23T18:06:10.986Z,42.75
2023-03-23T18:08:40.844Z,35.47
2023-03-23T18:11:08.451Z,32.90
2023-03-23T18:13:36.650Z,35.00
2023-03-23T18:16:04.430Z,35.67
2023-03-23T18:18:33.505Z,38.58
2023-03-23T18:23:28.842Z,69.80
2023-03-23T18:25:56.513Z,84.15
2023-03-23T18:28:31.293Z,73.40
2023-03-23T18:31:29.175Z,82.97
2023-03-23T18:33:56.793Z,80.35
2023-03-23T18:36:25.808Z,71.57
2023-03-23T18:41:20.777Z,57.17
2023-03-23T18:43:48.437Z,58.28
2023-03-23T18:46:19.033Z,60.45
2023-03-23T18:48:46.613Z,74.45
2023-03-23T18:51:14.193Z,80.93
2023-03-23T18:53:41.767Z,94.90
2023-03-23T18:56:10.442Z,90.95
2023-03-23T18:58:41.176Z,96.60
2023-03-23T19:01:11.895Z,100.78
2023-03-23T19:03:39.891Z,123.97
2023-03-23T19:06:07.727Z,100.95
2023-03-23T19:08:35.355Z,76.78
2023-03-23T19:11:03.605Z,74.53
2023-03-23T19:13:31.689Z,72.88
2023-03-23T19:16:00.078Z,73.47
2023-03-23T19:18:48.772Z,71.47
2023-03-23T19:21:19.878Z,74.85
2023-03-23T19:23:49.729Z,77.13
2023-03-23T19:26:23.269Z,87.40
2023-03-23T19:31:25.058Z,74.40
2023-03-23T19:33:56.125Z,101.93
2023-03-23T19:36:24.429Z,95.57
2023-03-23T19:38:54.467Z,69.63
2023-03-23T19:41:22.440Z,70.13
2023-03-23T19:43:50.140Z,73.30
2023-03-23T19:46:17.927Z,60.92
2023-03-23T19:48:46.679Z,55.88
2023-03-23T19:51:18.789Z,54.97
2023-03-23T19:53:49.271Z,57.47
2023-03-23T19:56:21.660Z,58.08
2023-03-23T19:58:49.491Z,60.95
2023-03-23T20:01:19.939Z,60.33
2023-03-23T20:03:58.590Z,64.18
2023-03-23T20:06:30.856Z,60.58
2023-03-23T20:09:01.408Z,65.38
2023-03-23T20:11:37.853Z,59.38
2023-03-23T20:14:11.154Z,61.58
2023-03-23T20:16:53.905Z,63.28
2023-03-23T20:19:24.276Z,71.78
2023-03-23T20:21:56.388Z,80.68
2023-03-23T20:36:03.900Z,69.13
2023-03-23T20:38:39.782Z,69.40
2023-03-23T20:41:11.797Z,68.75
2023-03-23T20:43:46.837Z,64.82
2023-03-23T20:46:17.169Z,65.72
2023-03-23T20:48:46.046Z,67.45
2023-03-23T20:51:13.571Z,70.30
2023-03-23T20:53:41.135Z,68.78
2023-03-23T20:56:08.962Z,75.72
2023-03-23T20:58:36.926Z,70.53
2023-03-23T21:01:05.699Z,64.85
2023-03-23T21:03:41.084Z,69.30
2023-03-23T21:07:03.306Z,72.47
2023-03-23T21:12:31.898Z,73.20
2023-03-23T21:15:04.064Z,60.40
2023-03-23T21:17:40.078Z,47.17
2023-03-23T21:20:11.635Z,53.33
2023-03-23T21:22:42.276Z,48.72
2023-03-23T21:25:34.267Z,51.33
2023-03-23T21:28:03.182Z,54.70
2023-03-23T21:30:30.627Z,55.13
2023-03-23T21:33:01.920Z,59.03
2023-03-23T21:35:32.308Z,62.42
2023-03-23T21:38:02.730Z,60.70
2023-03-23T21:40:33.857Z,53.42
2023-03-23T21:43:01.576Z,52.63
2023-03-23T21:45:34.909Z,55.50
2023-03-23T21:48:06.716Z,55.58
2023-03-23T21:50:35.929Z,54.53
2023-03-23T21:53:03.781Z,57.97
2023-03-23T21:55:31.562Z,62.30
2023-03-23T21:57:59.096Z,59.50
2023-03-23T22:00:27.010Z,58.75
2023-03-23T22:02:55.035Z,54.40
2023-03-23T22:05:25.740Z,65.95
2023-03-23T22:07:56.593Z,78.35
2023-03-23T22:10:26.796Z,56.22
2023-03-23T22:12:55.586Z,51.40
2023-03-23T22:15:29.549Z,50.45
2023-03-23T22:17:57.176Z,45.50
2023-03-23T22:20:25.893Z,45.00
2023-03-23T22:22:53.655Z,45.20
2023-03-23T22:25:21.230Z,42.25
2023-03-23T22:27:48.905Z,40.30
2023-03-23T22:30:16.517Z,40.03
2023-03-23T22:32:44.250Z,39.83
2023-03-23T22:35:12.914Z,42.03
2023-03-23T22:37:40.561Z,38.33
2023-03-23T22:40:10.275Z,42.50
2023-03-23T22:42:37.822Z,45.00
2023-03-23T22:45:09.411Z,40.22
2023-03-23T22:47:38.431Z,39.58
2023-03-23T22:50:06.955Z,40.42
2023-03-23T22:52:36.977Z,38.30
2023-03-23T22:55:05.961Z,32.55
2023-03-23T22:57:33.710Z,39.63
2023-03-23T23:00:01.203Z,41.83
2023-03-23T23:02:29.138Z,41.42
2023-03-23T23:04:59.445Z,40.42
2023-03-23T23:07:26.951Z,42.55
2023-03-23T23:09:56.429Z,42.45
2023-03-23T23:12:24.408Z,43.00
2023-03-23T23:14:52.421Z,43.88
2023-03-23T23:17:20.165Z,46.42
2023-03-23T23:19:47.785Z,44.42
2023-03-23T23:22:19.369Z,44.17
2023-03-23T23:24:50.125Z,40.75
2023-03-23T23:27:18.345Z,42.28
2023-03-23T23:29:45.910Z,39.58
2023-03-23T23:32:13.421Z,41.97
2023-03-23T23:34:41.162Z,41.45
2023-03-23T23:37:09.182Z,39.33
2023-03-23T23:39:38.898Z,37.70
2023-03-23T23:42:06.557Z,38.90
2023-03-23T23:44:34.289Z,41.00
2023-03-23T23:47:02.711Z,40.50
2023-03-23T23:49:31.988Z,41.45
2023-03-23T23:51:59.427Z,41.53
2023-03-23T23:54:30.239Z,43.47
2023-03-23T23:57:01.588Z,42.38
2023-03-23T23:59:29.314Z,44.88
